createdAt,value
2019-04-29T00:01:12.338Z,100956.94
2019-04-29T00:03:42.032Z,100956.46
2019-04-29T00:06:11.599Z,100959.00
2019-04-29T00:08:41.367Z,100960.33
2019-04-29T00:11:11.013Z,100961.66
2019-04-29T00:13:40.700Z,100954.17
2019-04-29T00:16:27.817Z,100959.59
2019-04-29T00:19:16.477Z,100958.97
2019-04-29T00:21:46.186Z,100955.87
2019-04-29T00:24:15.858Z,100963.34
2019-04-29T00:26:45.853Z,100963.34
2019-04-29T00:29:15.486Z,100964.30
2019-04-29T00:31:45.361Z,100957.88
2019-04-29T00:34:15.211Z,100958.28
2019-04-29T00:36:55.047Z,100958.50
2019-04-29T00:39:47.142Z,100957.98
2019-04-29T00:42:24.425Z,100960.79
2019-04-29T00:44:54.130Z,100957.62
2019-04-29T00:47:23.731Z,100955.07
2019-04-29T00:49:53.412Z,100960.05
2019-04-29T00:52:22.949Z,100958.98
2019-04-29T00:54:58.493Z,100961.16
2019-04-29T00:57:28.230Z,100961.81
2019-04-29T00:59:57.894Z,100964.36
2019-04-29T01:02:27.938Z,100957.47
2019-04-29T01:04:57.719Z,100961.89
2019-04-29T01:07:27.280Z,100959.35
2019-04-29T01:09:56.857Z,100969.23
2019-04-29T01:12:26.493Z,100963.92
2019-04-29T01:14:56.153Z,100961.64
2019-04-29T01:17:26.387Z,100965.84
2019-04-29T01:19:56.098Z,100965.61
2019-04-29T01:22:25.741Z,100961.59
2019-04-29T01:24:55.403Z,100957.39
2019-04-29T01:27:29.823Z,100959.09
2019-04-29T01:29:59.540Z,100958.39
2019-04-29T01:32:29.189Z,100973.84
2019-04-29T01:34:58.859Z,100965.09
2019-04-29T01:37:42.620Z,100962.21
2019-04-29T01:40:31.165Z,100963.15
2019-04-29T01:43:00.918Z,100964.45
2019-04-29T01:45:30.756Z,100960.95
2019-04-29T01:48:00.328Z,100964.82
2019-04-29T01:50:30.085Z,100962.83
2019-04-29T01:52:59.641Z,100970.69
2019-04-29T01:55:29.385Z,100971.59
2019-04-29T01:57:59.071Z,100971.86
2019-04-29T02:00:28.749Z,100974.80
2019-04-29T02:02:58.382Z,100975.84
2019-04-29T02:05:28.051Z,100977.16
2019-04-29T02:07:57.800Z,100980.98
2019-04-29T02:10:31.762Z,100981.31
2019-04-29T02:13:01.432Z,100982.37
2019-04-29T02:15:31.058Z,100981.31
2019-04-29T02:18:00.437Z,100977.70
2019-04-29T02:20:30.052Z,100976.48
2019-04-29T02:23:33.616Z,100977.06
2019-04-29T02:26:03.375Z,100973.66
2019-04-29T02:28:32.962Z,100972.52
2019-04-29T02:31:21.489Z,100977.83
2019-04-29T02:33:51.118Z,100973.73
2019-04-29T02:36:20.807Z,100974.22
2019-04-29T02:39:12.536Z,100974.22
2019-04-29T02:42:01.111Z,100980.00
2019-04-29T02:44:30.834Z,100982.66
2019-04-29T02:47:00.469Z,100979.16
2019-04-29T02:49:30.049Z,100983.03
2019-04-29T02:51:59.695Z,100983.51
2019-04-29T02:54:30.166Z,100985.31
2019-04-29T02:57:18.699Z,100982.18
2019-04-29T02:59:50.875Z,100984.56
2019-04-29T03:02:42.598Z,100977.88
2019-04-29T03:05:17.627Z,100980.17
2019-04-29T03:07:47.325Z,100979.27
2019-04-29T03:10:16.877Z,100972.16
2019-04-29T03:12:46.573Z,100964.97
2019-04-29T03:15:31.797Z,100965.81
2019-04-29T03:18:01.607Z,100964.28
2019-04-29T03:20:36.375Z,100964.66
2019-04-29T03:23:14.287Z,100972.91
2019-04-29T03:25:43.894Z,100967.27
2019-04-29T03:28:13.531Z,100967.27
2019-04-29T03:30:43.336Z,100974.59
2019-04-29T03:33:13.081Z,100978.36
2019-04-29T03:35:42.661Z,100974.72
2019-04-29T03:38:12.288Z,100974.73
2019-04-29T03:40:42.090Z,100980.20
2019-04-29T03:43:12.099Z,100969.43
2019-04-29T03:45:42.229Z,100966.30
2019-04-29T03:48:12.171Z,100975.46
2019-04-29T03:50:41.724Z,100986.17
2019-04-29T03:53:11.380Z,100979.82
2019-04-29T03:55:40.945Z,100979.83
2019-04-29T03:58:10.579Z,100980.38
2019-04-29T04:00:44.008Z,100981.34
2019-04-29T04:03:23.049Z,100983.98
2019-04-29T04:06:04.843Z,100983.82
2019-04-29T04:08:37.130Z,100986.73
2019-04-29T04:11:07.381Z,100992.50
2019-04-29T04:13:37.021Z,100996.76
2019-04-29T04:16:08.231Z,100996.66
2019-04-29T04:18:37.150Z,100997.03
2019-04-29T04:21:06.732Z,100994.01
2019-04-29T04:23:36.345Z,101002.75
2019-04-29T04:26:05.951Z,101001.97
2019-04-29T04:28:35.486Z,101000.63
2019-04-29T04:31:07.084Z,101001.74
2019-04-29T04:33:36.521Z,101000.48
2019-04-29T04:36:06.081Z,101007.86
2019-04-29T04:38:35.788Z,101017.13
2019-04-29T04:41:08.579Z,101008.19
2019-04-29T04:43:38.251Z,101013.71
2019-04-29T04:46:07.907Z,101016.63
2019-04-29T04:48:37.641Z,101014.97
2019-04-29T04:51:07.268Z,101016.16
2019-04-29T04:53:36.860Z,101015.03
2019-04-29T04:56:06.524Z,101025.70
2019-04-29T04:58:36.147Z,101024.58
2019-04-29T05:01:05.821Z,101026.94
2019-04-29T05:03:35.375Z,101024.83
2019-04-29T05:06:05.028Z,101027.48
2019-04-29T05:08:34.609Z,101025.62
2019-04-29T05:11:04.112Z,101033.36
2019-04-29T05:13:33.720Z,101035.45
2019-04-29T05:16:03.368Z,101040.87
2019-04-29T05:18:33.023Z,101043.52
2019-04-29T05:21:02.517Z,101050.39
2019-04-29T05:23:32.250Z,101053.48
2019-04-29T05:26:01.885Z,101048.88
2019-04-29T05:28:31.459Z,101053.77
2019-04-29T05:31:01.083Z,101050.87
2019-04-29T05:33:30.650Z,101053.17
2019-04-29T05:36:19.310Z,101054.09
2019-04-29T05:38:55.050Z,101050.91
2019-04-29T05:41:30.213Z,101054.58
2019-04-29T05:44:10.140Z,101056.03
2019-04-29T05:46:47.423Z,101056.89
2019-04-29T05:49:20.559Z,101069.66
2019-04-29T05:52:03.245Z,101068.20
2019-04-29T05:54:33.552Z,101067.23
2019-04-29T05:57:03.229Z,101075.21
2019-04-29T05:59:32.785Z,101074.67
2019-04-29T06:02:02.455Z,101083.09
2019-04-29T06:04:32.125Z,101085.95
2019-04-29T06:07:01.771Z,101087.61
2019-04-29T06:09:31.341Z,101090.11
2019-04-29T06:12:00.989Z,101089.75
2019-04-29T06:14:30.678Z,101088.23
2019-04-29T06:17:02.889Z,101095.33
2019-04-29T06:19:35.145Z,101096.61
2019-04-29T06:22:03.927Z,101089.75
2019-04-29T06:24:36.838Z,101089.30
2019-04-29T06:27:05.072Z,101095.51
2019-04-29T06:29:34.579Z,101091.55
2019-04-29T06:32:04.319Z,101096.92
2019-04-29T06:34:35.483Z,101100.53
2019-04-29T06:37:05.488Z,101092.43
2019-04-29T06:39:35.230Z,101094.47
2019-04-29T06:42:04.999Z,101092.92
2019-04-29T06:44:34.537Z,101090.39
2019-04-29T06:47:04.345Z,101097.77
2019-04-29T06:49:33.977Z,101098.80
2019-04-29T06:52:03.731Z,101102.50
2019-04-29T06:54:33.395Z,101106.33
2019-04-29T06:57:03.134Z,101105.94
2019-04-29T06:59:32.717Z,101105.69
2019-04-29T07:02:02.479Z,101096.28
2019-04-29T07:04:38.439Z,101104.12
2019-04-29T07:07:03.532Z,101106.82
2019-04-29T07:09:33.184Z,101102.30
2019-04-29T07:12:02.933Z,101102.75
2019-04-29T07:14:35.939Z,101101.05
2019-04-29T07:17:05.574Z,101101.11
2019-04-29T07:19:35.181Z,101100.72
2019-04-29T07:22:04.847Z,101099.30
2019-04-29T07:24:34.564Z,101102.16
2019-04-29T07:27:04.483Z,101097.43
2019-04-29T07:29:34.170Z,101100.18
2019-04-29T07:32:04.677Z,101105.44
2019-04-29T07:34:39.203Z,101103.81
2019-04-29T07:37:06.357Z,101102.86
2019-04-29T07:39:36.028Z,101104.84
2019-04-29T07:42:05.673Z,101103.25
2019-04-29T07:44:44.668Z,101118.22
2019-04-29T07:47:14.416Z,101113.48
2019-04-29T07:49:47.388Z,101103.94
2019-04-29T07:52:16.185Z,101105.84
2019-04-29T07:54:48.273Z,101112.68
2019-04-29T07:57:18.087Z,101106.89
2019-04-29T07:59:47.829Z,101108.91
2019-04-29T08:02:17.379Z,101102.00
2019-04-29T08:04:46.931Z,101107.03
2019-04-29T08:07:16.793Z,101098.52
2019-04-29T08:09:46.467Z,101100.28
2019-04-29T08:12:16.186Z,101094.06
2019-04-29T08:14:45.891Z,101089.60
2019-04-29T08:17:15.522Z,101096.77
2019-04-29T08:19:45.189Z,101093.29
2019-04-29T08:22:18.103Z,101090.42
2019-04-29T08:24:50.419Z,101093.28
2019-04-29T08:27:17.314Z,101091.28
2019-04-29T08:29:47.036Z,101091.73
2019-04-29T08:32:16.738Z,101089.80
2019-04-29T08:34:46.407Z,101087.43
2019-04-29T08:37:16.073Z,101086.20
2019-04-29T08:40:00.438Z,101081.11
2019-04-29T08:42:22.043Z,101081.14
2019-04-29T08:45:10.595Z,101086.06
2019-04-29T08:47:42.154Z,101084.21
2019-04-29T08:50:11.754Z,101087.36
2019-04-29T08:52:41.106Z,101086.23
2019-04-29T08:55:10.503Z,101092.23
2019-04-29T08:57:39.857Z,101087.36
2019-04-29T09:00:09.264Z,101099.59
2019-04-29T09:02:41.281Z,101100.43
2019-04-29T09:18:41.040Z,101083.28
2019-04-29T09:21:10.475Z,101077.02
2019-04-29T09:23:39.826Z,101070.60
2019-04-29T09:26:28.338Z,101059.81
2019-04-29T09:28:59.812Z,101055.73
2019-04-29T09:31:28.865Z,101051.50
2019-04-29T09:34:06.559Z,101059.41
2019-04-29T09:36:29.511Z,101057.53
2019-04-29T09:38:58.982Z,101061.27
2019-04-29T09:41:38.678Z,101050.08
2019-04-29T09:44:25.863Z,101054.95
2019-04-29T09:46:55.303Z,101064.96
2019-04-29T09:49:24.691Z,101051.08
2019-04-29T09:51:54.112Z,101054.52
2019-04-29T09:54:24.159Z,101055.41
2019-04-29T09:56:53.773Z,101043.73
2019-04-29T09:59:31.258Z,101053.27
2019-04-29T10:02:26.526Z,101045.72
2019-04-29T10:05:22.394Z,101046.30
2019-04-29T10:07:51.952Z,101047.37
2019-04-29T10:10:21.694Z,101042.08
2019-04-29T10:12:53.957Z,101041.73
2019-04-29T10:15:29.353Z,101039.83
2019-04-29T10:18:12.090Z,101029.98
2019-04-29T10:20:47.290Z,101036.41
2019-04-29T10:23:16.702Z,101045.41
2019-04-29T10:25:46.069Z,101044.09
2019-04-29T10:28:15.551Z,101043.03
2019-04-29T10:30:45.071Z,101037.19
2019-04-29T10:33:17.668Z,101036.46
2019-04-29T10:35:46.351Z,101031.28
2019-04-29T10:38:15.739Z,101029.36
2019-04-29T10:41:04.330Z,101032.62
2019-04-29T10:43:55.750Z,101031.14
2019-04-29T10:46:52.863Z,101025.16
2019-04-29T10:49:27.162Z,101023.77
2019-04-29T10:51:57.943Z,101018.36
2019-04-29T10:54:28.053Z,101022.31
2019-04-29T10:56:57.557Z,101024.51
2019-04-29T10:59:35.573Z,101018.20
2019-04-29T11:02:52.858Z,101013.09
2019-04-29T11:05:44.531Z,101010.12
2019-04-29T11:08:27.960Z,101012.98
2019-04-29T11:11:02.347Z,101009.45
2019-04-29T11:13:31.464Z,101004.84
2019-04-29T11:16:00.907Z,101004.94
2019-04-29T11:18:30.533Z,101006.84
2019-04-29T11:21:00.003Z,100996.58
2019-04-29T11:23:50.785Z,100992.93
2019-04-29T11:26:39.700Z,100991.66
2019-04-29T11:29:09.621Z,100988.91
2019-04-29T11:31:39.413Z,100987.84
2019-04-29T11:34:18.028Z,100977.50
2019-04-29T11:36:47.548Z,100972.03
2019-04-29T11:39:16.990Z,100972.77
2019-04-29T11:41:46.363Z,100969.40
2019-04-29T11:44:16.430Z,100965.31
2019-04-29T11:46:49.104Z,100950.27
2019-04-29T11:49:18.700Z,100954.52
2019-04-29T11:52:08.490Z,100951.89
2019-04-29T11:54:20.866Z,100947.63
2019-04-29T11:56:50.258Z,100939.38
2019-04-29T11:59:37.114Z,100942.08
2019-04-29T12:02:30.757Z,100941.41
2019-04-29T12:04:59.597Z,100939.73
2019-04-29T12:07:32.784Z,100932.27
2019-04-29T12:10:02.337Z,100933.53
2019-04-29T12:12:31.625Z,100924.09
2019-04-29T12:15:26.571Z,100930.55
2019-04-29T12:18:18.252Z,100923.17
2019-04-29T12:21:02.943Z,100922.38
2019-04-29T12:23:32.400Z,100918.50
2019-04-29T12:26:03.201Z,100917.38
2019-04-29T12:28:33.276Z,100915.16
2019-04-29T12:31:10.367Z,100916.08
2019-04-29T12:33:44.561Z,100911.49
2019-04-29T12:36:16.447Z,100908.56
2019-04-29T12:39:03.296Z,100904.02
2019-04-29T12:42:00.678Z,100905.08
2019-04-29T12:44:44.078Z,100897.84
2019-04-29T12:47:38.478Z,100898.51
2019-04-29T12:50:07.956Z,100889.59
2019-04-29T12:52:37.462Z,100890.27
2019-04-29T12:55:19.629Z,100891.91
2019-04-29T12:57:39.301Z,100892.01
2019-04-29T13:00:10.520Z,100882.05
2019-04-29T13:03:05.381Z,100882.15
2019-04-29T13:05:58.242Z,100884.52
2019-04-29T13:08:35.443Z,100880.86
2019-04-29T13:11:06.328Z,100889.41
2019-04-29T13:13:35.719Z,100882.40
2019-04-29T13:16:25.298Z,100870.45
2019-04-29T13:19:20.445Z,100867.67
2019-04-29T13:21:50.281Z,100869.66
2019-04-29T13:24:24.878Z,100868.35
2019-04-29T13:26:51.366Z,100854.80
2019-04-29T13:31:52.307Z,100846.14
2019-04-29T13:33:22.628Z,100860.89
2019-04-29T13:34:32.782Z,100844.65
2019-04-29T13:37:07.428Z,100847.51
2019-04-29T13:39:39.936Z,100829.11
2019-04-29T13:42:09.054Z,100833.13
2019-04-29T13:44:41.299Z,100826.55
2019-04-29T13:47:29.097Z,100826.66
2019-04-29T13:50:17.899Z,100826.98
2019-04-29T13:52:34.906Z,100818.08
2019-04-29T13:55:17.062Z,100827.10
2019-04-29T13:57:35.482Z,100818.00
2019-04-29T14:00:30.219Z,100815.91
2019-04-29T14:03:11.767Z,100822.67
2019-04-29T14:05:41.462Z,100824.78
2019-04-29T14:08:10.018Z,100831.59
2019-04-29T14:10:39.452Z,100820.55
2019-04-29T14:13:13.321Z,100825.53
2019-04-29T14:18:12.044Z,100819.52
2019-04-29T14:18:53.558Z,100813.94
2019-04-29T14:20:42.287Z,100818.17
2019-04-29T14:23:11.707Z,100817.05
2019-04-29T14:25:41.100Z,100823.16
2019-04-29T14:28:10.572Z,100826.50
2019-04-29T14:30:43.784Z,100812.16
2019-04-29T14:33:11.272Z,100810.77
2019-04-29T14:35:48.167Z,100810.83
2019-04-29T14:38:16.950Z,100803.55
2019-04-29T14:40:46.530Z,100799.22
2019-04-29T14:43:31.404Z,100804.88
2019-04-29T14:46:16.177Z,100797.87
2019-04-29T14:48:55.068Z,100785.95
2019-04-29T14:51:27.926Z,100788.91
2019-04-29T14:53:57.078Z,100783.63
2019-04-29T14:56:26.692Z,100788.25
2019-04-29T14:59:06.570Z,100792.63
2019-04-29T15:01:38.317Z,100790.17
2019-04-29T15:04:17.950Z,100789.84
2019-04-29T15:06:41.149Z,100787.89
2019-04-29T15:09:17.481Z,100783.70
2019-04-29T15:12:04.712Z,100787.62
2019-04-29T15:14:41.063Z,100785.13
2019-04-29T15:17:35.431Z,100780.68
2019-04-29T15:20:11.296Z,100776.09
2019-04-29T15:22:41.081Z,100777.50
2019-04-29T15:25:10.637Z,100776.34
2019-04-29T15:27:40.453Z,100772.66
2019-04-29T15:30:10.332Z,100783.05
2019-04-29T15:32:40.044Z,100777.89
2019-04-29T15:35:09.695Z,100782.02
2019-04-29T15:37:39.313Z,100773.73
2019-04-29T15:40:09.715Z,100767.97
2019-04-29T15:42:42.790Z,100766.17
2019-04-29T15:45:10.268Z,100762.55
2019-04-29T15:47:41.713Z,100764.65
2019-04-29T15:50:18.775Z,100771.22
2019-04-29T15:52:41.922Z,100768.78
2019-04-29T15:55:11.336Z,100768.60
2019-04-29T15:57:41.030Z,100766.59
2019-04-29T16:00:21.619Z,100773.34
2019-04-29T16:02:44.192Z,100765.03
2019-04-29T16:06:18.928Z,100771.66
2019-04-29T16:08:38.245Z,100767.95
2019-04-29T16:11:38.538Z,100771.54
2019-04-29T16:14:12.094Z,100768.14
2019-04-29T16:16:41.721Z,100766.14
2019-04-29T16:19:11.141Z,100763.98
2019-04-29T16:21:41.798Z,100770.66
2019-04-29T16:24:26.041Z,100763.86
2019-04-29T16:26:42.378Z,100770.98
2019-04-29T16:29:12.986Z,100762.94
2019-04-29T16:31:42.887Z,100757.57
2019-04-29T16:34:12.313Z,100765.77
2019-04-29T16:36:43.636Z,100774.47
2019-04-29T16:39:12.790Z,100780.05
2019-04-29T16:42:01.578Z,100773.70
2019-04-29T16:44:36.234Z,100774.01
2019-04-29T16:47:07.396Z,100778.19
2019-04-29T16:49:33.546Z,100783.08
2019-04-29T16:52:02.943Z,100783.42
2019-04-29T16:54:32.351Z,100784.11
2019-04-29T16:57:01.735Z,100782.55
2019-04-29T16:59:31.454Z,100784.78
2019-04-29T17:02:00.827Z,100792.31
2019-04-29T17:04:30.241Z,100789.28
2019-04-29T17:07:12.371Z,100791.43
2019-04-29T17:09:42.234Z,100795.36
2019-04-29T17:12:11.643Z,100805.86
2019-04-29T17:15:02.364Z,100801.98
2019-04-29T17:17:16.891Z,100799.45
2019-04-29T17:20:05.439Z,100797.78
2019-04-29T17:22:35.699Z,100797.61
2019-04-29T17:25:08.208Z,100796.62
2019-04-29T17:27:59.320Z,100800.31
2019-04-29T17:30:49.311Z,100793.92
2019-04-29T17:33:29.818Z,100794.42
2019-04-29T17:35:59.204Z,100793.59
2019-04-29T17:38:28.799Z,100801.33
2019-04-29T17:40:58.443Z,100796.20
2019-04-29T17:43:47.015Z,100788.80
2019-04-29T17:46:44.888Z,100779.50
2019-04-29T17:49:33.439Z,100771.41
2019-04-29T17:52:06.348Z,100755.66
2019-04-29T17:54:39.823Z,100766.72
2019-04-29T17:57:31.225Z,100765.07
2019-04-29T18:00:10.614Z,100769.77
2019-04-29T18:03:00.912Z,100771.08
2019-04-29T18:06:05.324Z,100766.56
2019-04-29T18:08:52.189Z,100771.94
2019-04-29T18:11:21.913Z,100776.23
2019-04-29T18:13:52.520Z,100770.28
2019-04-29T18:16:28.412Z,100767.46
2019-04-29T18:19:06.362Z,100769.65
2019-04-29T18:22:03.868Z,100769.46
2019-04-29T18:24:52.425Z,100777.83
2019-04-29T18:27:23.123Z,100790.05
2019-04-29T18:29:54.921Z,100784.52
2019-04-29T18:32:34.987Z,100791.52
2019-04-29T18:34:55.941Z,100788.41
2019-04-29T18:37:25.960Z,100790.78
2019-04-29T18:39:57.679Z,100788.41
2019-04-29T18:42:27.214Z,100791.78
2019-04-29T18:45:00.259Z,100792.58
2019-04-29T18:47:34.871Z,100782.51
2019-04-29T18:49:59.790Z,100772.50
2019-04-29T18:52:30.470Z,100773.35
2019-04-29T18:55:00.140Z,100771.33
2019-04-29T18:57:30.920Z,100758.16
2019-04-29T19:00:05.810Z,100750.53
2019-04-29T19:02:32.347Z,100752.01
2019-04-29T19:05:26.376Z,100757.14
2019-04-29T19:08:10.898Z,100762.30
2019-04-29T19:10:34.492Z,100767.72
2019-04-29T19:13:00.472Z,100766.06
2019-04-29T19:15:30.903Z,100776.44
2019-04-29T19:18:02.028Z,100771.70
2019-04-29T19:20:31.750Z,100761.45
2019-04-29T19:23:08.141Z,100758.01
2019-04-29T19:25:32.714Z,100767.16
2019-04-29T19:28:11.840Z,100764.19
2019-04-29T19:30:35.522Z,100754.16
2019-04-29T19:33:05.850Z,100759.63
2019-04-29T19:35:38.549Z,100754.22
2019-04-29T19:38:12.415Z,100754.73
2019-04-29T19:40:42.544Z,100760.97
2019-04-29T19:43:15.342Z,100769.30
2019-04-29T19:45:44.693Z,100759.09
2019-04-29T19:48:13.452Z,100753.39
2019-04-29T19:50:45.118Z,100764.53
2019-04-29T19:53:14.836Z,100761.75
2019-04-29T19:55:46.372Z,100753.22
2019-04-29T19:58:16.909Z,100759.70
2019-04-29T20:00:47.935Z,100762.14
2019-04-29T20:03:23.431Z,100769.69
2019-04-29T20:05:54.110Z,100764.61
2019-04-29T20:08:46.677Z,100763.48
2019-04-29T20:11:10.914Z,100758.14
2019-04-29T20:13:31.889Z,100768.52
2019-04-29T20:16:39.771Z,100762.43
2019-04-29T20:19:16.216Z,100768.94
2019-04-29T20:21:41.942Z,100773.92
2019-04-29T20:24:15.532Z,100770.67
2019-04-29T20:26:44.130Z,100762.97
2019-04-29T20:29:15.925Z,100758.90
2019-04-29T20:31:52.028Z,100747.30
2019-04-29T20:34:23.685Z,100732.67
2019-04-29T20:36:48.484Z,100739.23
2019-04-29T20:39:38.817Z,100744.34
2019-04-29T20:42:10.197Z,100747.22
2019-04-29T20:44:44.399Z,100737.11
2019-04-29T20:47:22.233Z,100740.82
2019-04-29T20:49:44.107Z,100744.75
2019-04-29T20:52:36.876Z,100755.50
2019-04-29T20:55:09.189Z,100759.70
2019-04-29T20:57:38.566Z,100776.30
2019-04-29T21:00:08.860Z,100782.92
2019-04-29T21:02:38.725Z,100785.66
2019-04-29T21:05:10.228Z,100800.15
2019-04-29T21:07:41.138Z,100803.91
2019-04-29T21:10:10.810Z,100788.09
2019-04-29T21:12:59.593Z,100791.95
2019-04-29T21:15:37.531Z,100791.83
2019-04-29T21:18:10.381Z,100783.83
2019-04-29T21:20:38.698Z,100799.79
2019-04-29T21:23:08.339Z,100796.90
2019-04-29T21:25:37.982Z,100785.05
2019-04-29T21:28:07.653Z,100800.54
2019-04-29T21:30:42.591Z,100800.05
2019-04-29T21:33:18.230Z,100788.08
2019-04-29T21:36:07.975Z,100802.09
2019-04-29T21:39:01.483Z,100789.06
2019-04-29T21:41:55.473Z,100799.75
2019-04-29T21:44:27.447Z,100791.67
2019-04-29T21:46:55.263Z,100800.23
2019-04-29T21:49:25.842Z,100796.47
2019-04-29T21:51:55.636Z,100805.30
2019-04-29T21:54:25.378Z,100803.25
2019-04-29T21:56:55.587Z,100810.84
2019-04-29T21:59:25.879Z,100808.52
2019-04-29T22:01:56.212Z,100813.09
2019-04-29T22:04:26.690Z,100807.10
2019-04-29T22:06:59.944Z,100806.82
2019-04-29T22:09:35.840Z,100814.73
2019-04-29T22:11:59.141Z,100813.75
2019-04-29T22:14:28.809Z,100817.84
2019-04-29T22:16:58.487Z,100824.88
2019-04-29T22:19:28.257Z,100828.73
2019-04-29T22:22:01.542Z,100819.86
2019-04-29T22:24:30.034Z,100823.60
2019-04-29T22:27:03.772Z,100824.59
2019-04-29T22:29:32.146Z,100819.84
2019-04-29T22:32:02.594Z,100823.67
2019-04-29T22:34:32.286Z,100817.90
2019-04-29T22:37:01.925Z,100813.23
2019-04-29T22:39:31.694Z,100818.04
2019-04-29T22:42:15.606Z,100807.67
2019-04-29T22:44:45.743Z,100806.15
2019-04-29T22:47:17.284Z,100803.56
2019-04-29T22:49:46.788Z,100809.33
2019-04-29T22:52:16.465Z,100797.91
2019-04-29T22:54:46.201Z,100811.25
2019-04-29T22:57:15.886Z,100813.14
2019-04-29T22:59:45.553Z,100803.43
2019-04-29T23:02:15.750Z,100803.53
2019-04-29T23:04:47.245Z,100810.41
2019-04-29T23:07:17.691Z,100799.69
2019-04-29T23:09:51.125Z,100800.19
2019-04-29T23:12:20.799Z,100813.42
2019-04-29T23:14:50.454Z,100792.98
2019-04-29T23:17:20.121Z,100793.61
2019-04-29T23:19:52.829Z,100800.22
2019-04-29T23:22:41.484Z,100798.95
2019-04-29T23:25:21.853Z,100799.52
2019-04-29T23:27:52.557Z,100795.94
2019-04-29T23:30:27.503Z,100794.65
2019-04-29T23:32:57.267Z,100788.39
2019-04-29T23:35:26.860Z,100782.50
2019-04-29T23:37:58.814Z,100776.08
2019-04-29T23:40:28.025Z,100780.42
2019-04-29T23:42:57.586Z,100773.80
2019-04-29T23:45:27.329Z,100769.84
2019-04-29T23:47:57.111Z,100772.16
2019-04-29T23:50:28.132Z,100775.23
2019-04-29T23:52:58.047Z,100775.69
2019-04-29T23:55:29.184Z,100763.41
2019-04-29T23:58:19.915Z,100771.33
